createdAt,value
2022-11-10T00:04:20.027Z,15.85
2022-11-10T00:09:24.822Z,18.98
2022-11-10T00:14:45.899Z,18.05
2022-11-10T00:19:49.497Z,18.55
2022-11-10T00:24:54.217Z,18.40
2022-11-10T00:29:57.629Z,19.33
2022-11-10T00:35:01.349Z,17.13
2022-11-10T00:40:07.102Z,19.08
2022-11-10T00:45:11.407Z,17.88
2022-11-10T00:50:15.466Z,17.92
2022-11-10T00:55:20.500Z,18.20
2022-11-10T01:00:24.012Z,17.10
2022-11-10T01:05:27.461Z,17.70
2022-11-10T01:10:32.276Z,16.45
2022-11-10T01:15:39.324Z,16.88
2022-11-10T01:20:42.882Z,16.92
2022-11-10T01:25:47.619Z,17.13
2022-11-10T01:30:50.970Z,17.27
2022-11-10T01:35:54.727Z,15.85
2022-11-10T01:40:59.689Z,15.98
2022-11-10T01:46:04.523Z,16.38
2022-11-10T01:51:13.263Z,16.50
2022-11-10T01:56:19.210Z,17.15
2022-11-10T02:01:22.763Z,15.45
2022-11-10T02:06:30.602Z,17.27
2022-11-10T02:11:36.802Z,15.65
2022-11-10T02:16:41.159Z,16.55
2022-11-10T02:21:46.200Z,14.68
2022-11-10T02:26:53.658Z,14.77
2022-11-10T02:31:57.000Z,14.57
2022-11-10T02:37:01.724Z,14.65
2022-11-10T02:42:10.348Z,14.88
2022-11-10T02:47:13.805Z,14.30
2022-11-10T02:52:18.903Z,14.70
2022-11-10T02:57:22.250Z,15.57
2022-11-10T03:02:29.796Z,13.63
2022-11-10T03:07:37.043Z,14.30
2022-11-10T03:12:40.448Z,14.75
2022-11-10T03:17:43.830Z,14.00
2022-11-10T03:22:48.894Z,13.73
2022-11-10T03:27:52.265Z,14.35
2022-11-10T03:32:55.951Z,15.23
2022-11-10T03:38:01.302Z,14.40
2022-11-10T03:43:04.750Z,14.52
2022-11-10T03:48:08.167Z,13.85
2022-11-10T03:53:13.369Z,15.32
2022-11-10T03:58:16.736Z,13.52
2022-11-10T04:03:20.505Z,13.82
2022-11-10T04:08:42.835Z,13.43
2022-11-10T04:14:12.168Z,13.77
2022-11-10T04:19:15.656Z,10.55
2022-11-10T04:24:20.564Z,11.20
2022-11-10T04:29:24.025Z,11.25
2022-11-10T04:34:27.638Z,12.35
2022-11-10T04:39:32.359Z,12.25
2022-11-10T04:44:36.030Z,11.88
2022-11-10T04:49:39.363Z,12.23
2022-11-10T04:54:44.076Z,11.30
2022-11-10T04:59:47.595Z,11.48
2022-11-10T05:04:51.003Z,12.18
2022-11-10T05:09:56.104Z,12.50
2022-11-10T05:14:59.776Z,11.75
2022-11-10T05:20:03.610Z,10.88
2022-11-10T05:25:09.214Z,10.38
2022-11-10T05:30:12.981Z,9.60
2022-11-10T05:35:16.479Z,9.10
2022-11-10T05:40:21.330Z,9.10
2022-11-10T05:45:26.647Z,9.35
2022-11-10T05:50:30.340Z,8.27
2022-11-10T05:55:35.287Z,8.45
2022-11-10T06:00:38.796Z,7.75
2022-11-10T06:05:42.187Z,8.35
2022-11-10T06:10:47.195Z,7.70
2022-11-10T06:15:50.845Z,8.27
2022-11-10T06:20:54.294Z,7.40
2022-11-10T06:25:59.004Z,7.70
2022-11-10T06:31:02.418Z,6.88
2022-11-10T06:36:06.125Z,7.05
2022-11-10T06:41:11.125Z,6.70
2022-11-10T06:46:14.601Z,7.65
2022-11-10T06:51:19.312Z,6.68
2022-11-10T06:56:24.553Z,6.32
2022-11-10T07:01:28.580Z,6.22
2022-11-10T07:06:32.183Z,6.70
2022-11-10T07:11:37.370Z,6.63
2022-11-10T07:16:40.774Z,6.07
2022-11-10T07:21:44.147Z,5.57
2022-11-10T07:26:49.112Z,5.68
2022-11-10T07:31:52.627Z,5.22
2022-11-10T07:36:56.005Z,5.40
2022-11-10T07:42:00.722Z,5.00
2022-11-10T07:47:04.361Z,6.32
2022-11-10T07:52:07.689Z,5.95
2022-11-10T07:57:12.644Z,6.05
2022-11-10T08:02:16.052Z,5.03
2022-11-10T08:07:19.956Z,6.35
2022-11-10T08:12:26.693Z,5.75
2022-11-10T08:17:33.183Z,5.97
2022-11-10T08:22:36.568Z,5.28
2022-11-10T08:27:41.273Z,5.65
2022-11-10T08:32:44.624Z,5.10
2022-11-10T08:37:48.008Z,4.82
2022-11-10T08:42:59.578Z,4.80
2022-11-10T08:48:05.297Z,5.95
2022-11-10T08:53:11.587Z,5.85
2022-11-10T08:58:18.180Z,6.20
2022-11-10T09:03:23.852Z,5.20
2022-11-10T09:08:27.642Z,5.28
2022-11-10T09:13:32.913Z,4.25
2022-11-10T09:18:36.615Z,4.38
2022-11-10T09:23:40.079Z,4.43
2022-11-10T09:28:44.833Z,5.35
2022-11-10T09:33:48.182Z,4.35
2022-11-10T09:38:54.348Z,3.25
2022-11-10T09:44:04.969Z,3.80
2022-11-10T09:49:19.338Z,3.33
2022-11-10T09:54:34.173Z,2.85
2022-11-10T09:59:39.155Z,3.78
2022-11-10T10:05:02.869Z,2.90
2022-11-10T10:10:17.605Z,2.60
2022-11-10T10:15:31.945Z,2.38
2022-11-10T10:20:43.833Z,2.92
2022-11-10T10:25:47.729Z,2.30
2022-11-10T10:30:52.605Z,3.58
2022-11-10T10:35:56.507Z,2.38
2022-11-10T10:41:04.407Z,2.40
2022-11-10T10:46:10.953Z,2.30
2022-11-10T10:51:29.782Z,2.60
2022-11-10T10:56:34.336Z,2.30
2022-11-10T11:01:41.139Z,2.30
2022-11-10T11:06:57.221Z,2.45
2022-11-10T11:12:03.586Z,2.58
2022-11-10T11:17:15.177Z,2.10
2022-11-10T11:22:43.760Z,2.35
2022-11-10T11:27:55.763Z,2.28
2022-11-10T11:33:21.415Z,2.67
2022-11-10T11:38:32.214Z,2.55
2022-11-10T11:43:57.978Z,2.67
2022-11-10T11:49:25.707Z,2.53
2022-11-10T11:54:37.054Z,2.35
2022-11-10T12:00:00.658Z,2.03
2022-11-10T12:05:18.522Z,1.90
2022-11-10T12:10:31.559Z,2.60
2022-11-10T12:15:45.180Z,2.40
2022-11-10T12:21:04.110Z,2.60
2022-11-10T12:26:17.614Z,2.03
2022-11-10T12:31:23.847Z,2.30
2022-11-10T12:36:31.516Z,2.35
2022-11-10T12:41:40.449Z,2.03
2022-11-10T12:46:50.951Z,1.92
2022-11-10T12:52:03.976Z,2.40
2022-11-10T12:57:12.380Z,2.28
2022-11-10T13:02:24.790Z,1.90
2022-11-10T13:07:30.097Z,2.33
2022-11-10T13:12:34.081Z,1.90
2022-11-10T13:17:55.051Z,1.77
2022-11-10T13:22:59.907Z,2.28
2022-11-10T13:28:03.562Z,1.80
2022-11-10T13:33:35.302Z,2.83
2022-11-10T13:38:41.411Z,2.10
2022-11-10T13:43:50.411Z,2.22
2022-11-10T13:49:19.305Z,1.75
2022-11-10T13:55:14.748Z,2.13
2022-11-10T14:00:29.091Z,1.58
2022-11-10T14:06:08.650Z,2.00
2022-11-10T14:11:23.711Z,1.67
2022-11-10T14:16:31.459Z,1.52
2022-11-10T14:21:43.598Z,1.73
2022-11-10T14:26:53.020Z,1.90
2022-11-10T14:31:59.316Z,1.65
2022-11-10T14:37:04.484Z,2.67
2022-11-10T14:42:15.412Z,1.75
2022-11-10T14:47:27.529Z,1.77
2022-11-10T14:52:31.326Z,2.22
2022-11-10T14:57:37.698Z,1.90
2022-11-10T15:02:41.716Z,2.00
2022-11-10T15:07:46.921Z,2.13
